createdAt,value
2019-05-12T00:00:23.527Z,8.07
2019-05-12T00:01:23.511Z,8.05
2019-05-12T00:02:23.488Z,8.04
2019-05-12T00:03:23.467Z,8.04
2019-05-12T00:04:23.449Z,7.98
2019-05-12T00:05:23.448Z,8.02
2019-05-12T00:06:23.428Z,8.07
2019-05-12T00:07:23.385Z,8.05
2019-05-12T00:08:23.372Z,8.02
2019-05-12T00:09:23.364Z,8.02
2019-05-12T00:10:23.345Z,8.00
2019-05-12T00:11:23.313Z,7.97
2019-05-12T00:12:23.288Z,7.90
2019-05-12T00:13:23.268Z,7.93
2019-05-12T00:14:23.252Z,7.89
2019-05-12T00:15:23.238Z,7.86
2019-05-12T00:16:23.227Z,7.86
2019-05-12T00:17:23.191Z,7.90
2019-05-12T00:18:23.172Z,7.86
2019-05-12T00:19:23.154Z,7.85
2019-05-12T00:20:23.146Z,7.82
2019-05-12T00:21:23.113Z,7.82
2019-05-12T00:22:23.091Z,7.72
2019-05-12T00:23:27.768Z,7.72
2019-05-12T00:24:23.067Z,7.64
2019-05-12T00:25:23.028Z,7.67
2019-05-12T00:26:23.009Z,7.61
2019-05-12T00:27:23.006Z,7.63
2019-05-12T00:28:22.987Z,7.53
2019-05-12T00:29:22.951Z,7.53
2019-05-12T00:30:22.936Z,7.52
2019-05-12T00:31:22.938Z,7.57
2019-05-12T00:32:22.894Z,7.50
2019-05-12T00:33:22.888Z,7.57
2019-05-12T00:34:22.851Z,7.57
2019-05-12T00:35:22.827Z,7.46
2019-05-12T00:36:22.811Z,7.45
2019-05-12T00:37:22.795Z,7.53
2019-05-12T00:38:22.778Z,7.48
2019-05-12T00:39:22.798Z,7.35
2019-05-12T00:40:22.839Z,7.40
2019-05-12T00:41:22.709Z,7.43
2019-05-12T00:42:22.701Z,7.49
2019-05-12T00:43:22.668Z,7.39
2019-05-12T00:44:22.648Z,7.37
2019-05-12T00:45:22.644Z,7.31
2019-05-12T00:46:22.611Z,7.32
2019-05-12T00:47:22.589Z,7.30
2019-05-12T00:48:22.577Z,7.31
2019-05-12T00:49:22.551Z,7.30
2019-05-12T00:50:22.561Z,7.25
2019-05-12T00:51:22.527Z,7.31
2019-05-12T00:52:22.486Z,7.28
2019-05-12T00:53:36.007Z,7.24
2019-05-12T00:54:22.449Z,7.25
2019-05-12T00:55:22.433Z,7.25
2019-05-12T00:56:22.410Z,7.20
2019-05-12T00:57:22.414Z,7.16
2019-05-12T00:58:22.372Z,7.15
2019-05-12T00:59:22.346Z,7.13
2019-05-12T01:00:22.329Z,7.07
2019-05-12T01:01:22.327Z,7.07
2019-05-12T01:02:22.317Z,7.05
2019-05-12T01:03:22.278Z,6.99
2019-05-12T01:04:22.254Z,6.94
2019-05-12T01:05:22.238Z,6.97
2019-05-12T01:06:22.209Z,7.02
2019-05-12T01:07:22.184Z,7.03
2019-05-12T01:08:22.200Z,6.99
2019-05-12T01:09:22.155Z,6.95
2019-05-12T01:10:22.138Z,6.95
2019-05-12T01:11:22.105Z,6.97
2019-05-12T01:12:22.086Z,6.91
2019-05-12T01:13:22.068Z,6.95
2019-05-12T01:14:22.066Z,6.94
2019-05-12T01:15:22.026Z,6.91
2019-05-12T01:16:22.014Z,6.84
2019-05-12T01:17:21.984Z,6.91
2019-05-12T01:18:21.977Z,6.87
2019-05-12T01:19:21.947Z,6.91
2019-05-12T01:20:21.943Z,6.80
2019-05-12T01:21:21.920Z,6.79
2019-05-12T01:22:21.886Z,6.80
2019-05-12T01:23:23.484Z,6.79
2019-05-12T01:24:21.856Z,6.80
2019-05-12T01:25:21.826Z,6.84
2019-05-12T01:26:21.834Z,6.94
2019-05-12T01:27:21.783Z,6.92
2019-05-12T01:28:21.763Z,6.92
2019-05-12T01:29:21.741Z,6.95
2019-05-12T01:30:21.722Z,7.03
2019-05-12T01:31:21.707Z,7.03
2019-05-12T01:32:21.701Z,7.02
2019-05-12T01:33:21.663Z,6.97
2019-05-12T01:34:21.636Z,7.03
2019-05-12T01:35:21.623Z,6.99
2019-05-12T01:36:21.601Z,6.99
2019-05-12T01:37:21.592Z,6.97
2019-05-12T01:38:21.559Z,7.02
2019-05-12T01:39:21.536Z,6.97
2019-05-12T01:40:21.521Z,6.97
2019-05-12T01:41:21.499Z,7.05
2019-05-12T01:42:21.478Z,7.13
2019-05-12T01:43:21.498Z,7.10
2019-05-12T01:44:21.435Z,7.07
2019-05-12T01:45:21.425Z,7.15
2019-05-12T01:46:21.395Z,7.12
2019-05-12T01:47:21.376Z,7.21
2019-05-12T01:48:21.358Z,7.23
2019-05-12T01:49:21.359Z,7.25
2019-05-12T01:50:21.326Z,7.28
2019-05-12T01:51:21.296Z,7.30
2019-05-12T01:52:21.282Z,7.32
2019-05-12T01:53:21.258Z,7.30
2019-05-12T01:54:21.254Z,7.32
2019-05-12T01:55:21.228Z,7.37
2019-05-12T01:56:21.194Z,7.45
2019-05-12T01:57:21.193Z,7.45
2019-05-12T01:58:21.153Z,7.45
2019-05-12T01:59:21.137Z,7.46
2019-05-12T02:00:21.137Z,7.50
2019-05-12T02:01:21.136Z,7.46
2019-05-12T02:02:21.083Z,7.45
2019-05-12T02:03:21.051Z,7.40
2019-05-12T02:04:21.035Z,7.39
2019-05-12T02:05:21.012Z,7.37
2019-05-12T02:06:21.018Z,7.37
2019-05-12T02:07:20.973Z,7.39
2019-05-12T02:08:20.949Z,7.35
2019-05-12T02:09:20.951Z,7.39
2019-05-12T02:10:20.906Z,7.32
2019-05-12T02:11:20.888Z,7.30
2019-05-12T02:12:20.871Z,7.30
2019-05-12T02:13:20.866Z,7.31
2019-05-12T02:14:20.830Z,7.30
2019-05-12T02:15:20.804Z,7.34
2019-05-12T02:16:20.788Z,7.35
2019-05-12T02:17:20.767Z,7.40
2019-05-12T02:18:20.749Z,7.40
2019-05-12T02:19:20.763Z,7.40
2019-05-12T02:20:20.709Z,7.37
2019-05-12T02:21:20.692Z,7.37
2019-05-12T02:22:20.675Z,7.48
2019-05-12T02:23:20.648Z,7.46
2019-05-12T02:24:26.813Z,7.46
2019-05-12T02:25:20.621Z,7.35
2019-05-12T02:26:20.588Z,7.39
2019-05-12T02:27:20.566Z,7.35
2019-05-12T02:28:20.551Z,7.35
2019-05-12T02:29:20.526Z,7.34
2019-05-12T02:30:20.696Z,7.32
2019-05-12T02:31:21.000Z,7.45
2019-05-12T02:32:20.492Z,7.39
2019-05-12T02:33:20.447Z,7.35
2019-05-12T02:34:20.448Z,7.34
2019-05-12T02:35:20.410Z,7.37
2019-05-12T02:36:20.393Z,7.32
2019-05-12T02:37:20.364Z,7.28
2019-05-12T02:38:20.345Z,7.32
2019-05-12T02:39:20.354Z,7.31
2019-05-12T02:40:20.306Z,7.28
2019-05-12T02:41:20.286Z,7.30
2019-05-12T02:42:20.270Z,7.30
2019-05-12T02:43:20.276Z,7.21
2019-05-12T02:44:20.219Z,7.20
2019-05-12T02:45:20.203Z,7.23
2019-05-12T02:46:20.185Z,7.35
2019-05-12T02:47:20.169Z,7.30
2019-05-12T02:48:20.139Z,7.28
2019-05-12T02:49:20.137Z,7.28
2019-05-12T02:50:20.104Z,7.21
2019-05-12T02:51:20.080Z,7.30
2019-05-12T02:52:20.062Z,7.21
2019-05-12T02:53:20.042Z,7.32
2019-05-12T02:54:20.022Z,7.31
2019-05-12T02:55:20.033Z,7.25
2019-05-12T02:56:19.986Z,7.31
2019-05-12T02:57:19.956Z,7.42
2019-05-12T02:58:19.960Z,7.42
2019-05-12T02:59:19.917Z,7.45
2019-05-12T03:00:19.894Z,7.39
2019-05-12T03:01:19.901Z,7.49
2019-05-12T03:02:19.859Z,7.52
2019-05-12T03:03:19.837Z,7.48
2019-05-12T03:04:19.857Z,7.49
2019-05-12T03:05:19.800Z,7.48
2019-05-12T03:06:19.805Z,7.43
2019-05-12T03:07:19.762Z,7.40
2019-05-12T03:08:19.743Z,7.48
2019-05-12T03:09:19.719Z,7.42
2019-05-12T03:10:19.710Z,7.42
2019-05-12T03:11:19.699Z,7.40
2019-05-12T03:12:19.658Z,7.39
2019-05-12T03:13:19.645Z,7.46
2019-05-12T03:14:19.620Z,7.50
2019-05-12T03:15:19.597Z,7.50
2019-05-12T03:16:19.579Z,7.57
2019-05-12T03:17:19.585Z,7.52
2019-05-12T03:18:19.554Z,7.48
2019-05-12T03:19:19.518Z,7.49
2019-05-12T03:20:19.495Z,7.53
2019-05-12T03:21:19.519Z,7.46
2019-05-12T03:22:19.456Z,7.42
2019-05-12T03:23:19.879Z,7.43
2019-05-12T03:24:19.421Z,7.42
2019-05-12T03:25:24.596Z,7.45
2019-05-12T03:26:19.376Z,7.52
2019-05-12T03:27:19.353Z,7.45
2019-05-12T03:28:19.337Z,7.45
2019-05-12T03:29:19.357Z,7.46
2019-05-12T03:30:20.016Z,7.52
2019-05-12T03:31:24.991Z,7.57
2019-05-12T03:32:19.282Z,7.49
2019-05-12T03:33:20.440Z,7.50
2019-05-12T03:34:20.461Z,7.50
2019-05-12T03:35:19.196Z,7.40
2019-05-12T03:36:19.177Z,7.50
2019-05-12T03:37:19.149Z,7.50
2019-05-12T03:38:19.135Z,7.50
2019-05-12T03:39:19.108Z,7.45
2019-05-12T03:40:19.183Z,7.49
2019-05-12T03:41:19.091Z,7.46
2019-05-12T03:42:19.062Z,7.53
2019-05-12T03:43:19.033Z,7.53
2019-05-12T03:44:19.006Z,7.50
2019-05-12T03:45:18.992Z,7.58
2019-05-12T03:46:18.969Z,7.60
2019-05-12T03:47:25.131Z,7.57
2019-05-12T03:48:18.977Z,7.50
2019-05-12T03:49:18.913Z,7.53
2019-05-12T03:50:18.889Z,7.52
2019-05-12T03:51:18.877Z,7.53
2019-05-12T03:52:18.866Z,7.57
2019-05-12T03:53:18.825Z,7.53
2019-05-12T03:54:18.813Z,7.55
2019-05-12T03:55:34.269Z,7.53
2019-05-12T03:56:18.761Z,7.53
2019-05-12T03:57:18.763Z,7.58
2019-05-12T03:58:18.744Z,7.50
2019-05-12T03:59:18.706Z,7.64
2019-05-12T04:00:18.692Z,7.49
2019-05-12T04:01:18.663Z,7.52
2019-05-12T04:02:18.671Z,7.57
2019-05-12T04:03:18.622Z,7.58
2019-05-12T04:04:18.604Z,7.50
2019-05-12T04:05:18.605Z,7.68
2019-05-12T04:06:18.583Z,7.63
2019-05-12T04:07:18.540Z,7.61
2019-05-12T04:08:18.527Z,7.63
2019-05-12T04:09:18.511Z,7.61
2019-05-12T04:10:18.481Z,7.68
2019-05-12T04:11:18.506Z,7.67
2019-05-12T04:12:18.438Z,7.64
2019-05-12T04:13:18.423Z,7.58
2019-05-12T04:14:18.459Z,7.67
2019-05-12T04:15:18.384Z,7.61
2019-05-12T04:16:18.361Z,7.60
2019-05-12T04:17:18.358Z,7.60
2019-05-12T04:18:18.319Z,7.63
2019-05-12T04:19:18.304Z,7.69
2019-05-12T04:20:18.282Z,7.68
2019-05-12T04:21:18.259Z,7.58
2019-05-12T04:22:18.260Z,7.61
2019-05-12T04:23:18.236Z,7.77
2019-05-12T04:24:18.196Z,7.64
2019-05-12T04:25:18.180Z,7.72
2019-05-12T04:26:18.163Z,7.71
2019-05-12T04:27:18.140Z,7.82
2019-05-12T04:28:18.116Z,7.71
2019-05-12T04:29:18.119Z,7.71
2019-05-12T04:30:18.077Z,7.61
2019-05-12T04:31:18.100Z,7.64
2019-05-12T04:32:18.036Z,7.69
2019-05-12T04:33:18.016Z,7.72
2019-05-12T04:34:19.217Z,7.72
2019-05-12T04:35:17.978Z,7.80
2019-05-12T04:36:17.954Z,7.79
2019-05-12T04:37:17.953Z,7.80
2019-05-12T04:38:17.919Z,7.80
2019-05-12T04:39:17.896Z,7.82
2019-05-12T04:40:17.877Z,7.83
2019-05-12T04:41:19.970Z,7.87
2019-05-12T04:42:17.834Z,7.82
2019-05-12T04:43:17.830Z,7.85
2019-05-12T04:44:17.796Z,7.86
2019-05-12T04:45:17.772Z,7.89
2019-05-12T04:46:17.750Z,7.85
2019-05-12T04:47:17.753Z,7.86
2019-05-12T04:48:21.297Z,7.89
2019-05-12T04:49:17.715Z,7.92
2019-05-12T04:50:17.673Z,7.95
2019-05-12T04:51:17.673Z,7.95
2019-05-12T04:52:17.628Z,7.97
2019-05-12T04:53:17.652Z,8.01
2019-05-12T04:54:17.601Z,8.05
2019-05-12T04:55:17.569Z,8.01
2019-05-12T04:56:20.561Z,8.08
2019-05-12T04:57:20.972Z,7.93
2019-05-12T04:58:17.508Z,8.04
2019-05-12T04:59:17.492Z,8.05
2019-05-12T05:00:17.482Z,8.01
2019-05-12T05:01:17.458Z,8.10
2019-05-12T05:02:17.433Z,8.16
2019-05-12T05:03:17.410Z,8.16
2019-05-12T05:04:17.405Z,8.11
2019-05-12T05:05:17.398Z,8.18
2019-05-12T05:06:17.356Z,8.19
2019-05-12T05:07:17.348Z,8.19
2019-05-12T05:08:19.775Z,8.16
2019-05-12T05:09:17.293Z,8.18
2019-05-12T05:10:17.276Z,8.20
2019-05-12T05:11:17.246Z,8.11
2019-05-12T05:12:17.266Z,8.20
2019-05-12T05:13:17.215Z,8.12
2019-05-12T05:14:17.193Z,8.11
2019-05-12T05:15:17.168Z,8.08
2019-05-12T05:16:17.156Z,8.12
2019-05-12T05:17:17.130Z,8.16
2019-05-12T05:18:17.123Z,8.15
2019-05-12T05:19:17.273Z,8.20
2019-05-12T05:20:17.073Z,8.15
2019-05-12T05:21:17.048Z,8.20
2019-05-12T05:22:17.030Z,8.15
2019-05-12T05:23:17.026Z,8.16
2019-05-12T05:24:17.000Z,8.11
2019-05-12T05:25:16.968Z,8.19
2019-05-12T05:26:24.389Z,8.20
2019-05-12T05:27:16.930Z,8.19
2019-05-12T05:28:16.913Z,8.15
2019-05-12T05:29:16.888Z,8.15
2019-05-12T05:30:16.885Z,8.18
2019-05-12T05:31:16.848Z,8.19
2019-05-12T05:32:16.826Z,8.20
2019-05-12T05:33:19.785Z,8.19
2019-05-12T05:34:16.861Z,8.15
2019-05-12T05:35:16.769Z,8.23
2019-05-12T05:36:19.809Z,8.43
2019-05-12T05:37:16.731Z,8.50
2019-05-12T05:38:20.592Z,8.58
2019-05-12T05:39:16.698Z,8.61
2019-05-12T05:40:19.926Z,8.70
2019-05-12T05:41:16.674Z,8.79
2019-05-12T05:42:16.628Z,8.94
2019-05-12T05:43:18.411Z,8.87
2019-05-12T05:44:16.585Z,8.98
2019-05-12T05:45:22.130Z,8.94
2019-05-12T05:46:16.572Z,8.98
2019-05-12T05:47:19.768Z,8.98
2019-05-12T05:48:16.509Z,9.05
2019-05-12T05:49:16.488Z,9.02
2019-05-12T05:50:18.548Z,9.15
2019-05-12T05:51:16.447Z,8.96
2019-05-12T05:52:16.437Z,9.05
2019-05-12T05:53:19.627Z,9.28
2019-05-12T05:54:16.387Z,9.31
2019-05-12T05:55:20.134Z,9.24
2019-05-12T05:56:18.290Z,9.29
2019-05-12T05:57:20.101Z,9.40
2019-05-12T05:58:16.320Z,9.40
2019-05-12T05:59:16.288Z,9.39
2019-05-12T06:00:21.687Z,9.47
2019-05-12T06:01:16.254Z,9.47
2019-05-12T06:02:16.256Z,9.57
2019-05-12T06:03:22.966Z,9.64
2019-05-12T06:04:16.215Z,9.51
2019-05-12T06:05:20.027Z,9.64
2019-05-12T06:06:16.156Z,9.65
2019-05-12T06:07:16.135Z,9.61
2019-05-12T06:08:20.631Z,9.68
2019-05-12T06:09:16.096Z,9.65
2019-05-12T06:10:16.077Z,9.65
2019-05-12T06:11:23.929Z,9.60
2019-05-12T06:12:16.039Z,9.61
2019-05-12T06:13:16.013Z,9.61
2019-05-12T06:14:16.342Z,9.61
2019-05-12T06:15:15.979Z,9.69
2019-05-12T06:16:20.640Z,9.84
2019-05-12T06:17:15.936Z,9.86
2019-05-12T06:18:15.930Z,9.89
2019-05-12T06:19:15.899Z,10.08
2019-05-12T06:20:15.879Z,9.99
2019-05-12T06:21:15.878Z,10.20
2019-05-12T06:22:18.437Z,10.14
2019-05-12T06:23:15.823Z,10.32
2019-05-12T06:24:20.061Z,10.29
2019-05-12T06:25:16.426Z,10.55
2019-05-12T06:26:20.976Z,10.52
2019-05-12T06:27:20.776Z,10.70
2019-05-12T06:28:15.727Z,10.61
2019-05-12T06:29:20.276Z,10.66
2019-05-12T06:30:15.687Z,10.71
2019-05-12T06:31:19.004Z,10.74
2019-05-12T06:32:15.667Z,10.59
2019-05-12T06:33:15.629Z,10.67
2019-05-12T06:34:20.624Z,10.66
2019-05-12T06:35:15.595Z,10.63
2019-05-12T06:36:21.983Z,10.61
2019-05-12T06:37:17.134Z,10.63
2019-05-12T06:38:15.529Z,10.66
2019-05-12T06:39:19.371Z,10.59
2019-05-12T06:40:15.494Z,10.73
2019-05-12T06:41:20.480Z,10.64
2019-05-12T06:42:16.943Z,10.68
2019-05-12T06:43:15.449Z,10.74
2019-05-12T06:44:19.432Z,10.78
2019-05-12T06:45:15.400Z,10.89
2019-05-12T06:46:21.064Z,10.92
2019-05-12T06:47:15.357Z,11.09
2019-05-12T06:48:19.227Z,11.39
2019-05-12T06:49:17.452Z,11.46
2019-05-12T06:50:15.308Z,11.40
2019-05-12T06:51:22.164Z,11.46
2019-05-12T06:52:15.281Z,11.57
2019-05-12T06:53:15.249Z,11.69
2019-05-12T06:54:15.333Z,11.83
2019-05-12T06:55:15.213Z,11.90
2019-05-12T06:56:19.631Z,11.96
2019-05-12T06:57:24.189Z,11.86
2019-05-12T06:58:15.168Z,11.88
2019-05-12T06:59:15.137Z,11.82
2019-05-12T07:00:15.135Z,11.73
2019-05-12T07:01:19.372Z,11.62
2019-05-12T07:02:15.086Z,11.61
2019-05-12T07:03:19.330Z,11.58
2019-05-12T07:04:15.062Z,11.52
2019-05-12T07:05:15.032Z,11.54
2019-05-12T07:06:19.707Z,11.51
2019-05-12T07:07:14.982Z,11.49
2019-05-12T07:08:20.114Z,11.40
2019-05-12T07:09:24.193Z,11.36
2019-05-12T07:10:34.313Z,11.44
2019-05-12T07:11:14.933Z,11.43
2019-05-12T07:12:14.896Z,11.58
2019-05-12T07:13:23.245Z,11.62
2019-05-12T07:14:22.665Z,11.85
2019-05-12T07:15:14.872Z,11.85
2019-05-12T07:16:16.713Z,11.96
2019-05-12T07:17:14.854Z,11.98
2019-05-12T07:18:17.207Z,12.07
2019-05-12T07:19:21.002Z,12.13
2019-05-12T07:20:14.897Z,12.17
2019-05-12T07:21:19.452Z,12.16
2019-05-12T07:22:22.367Z,12.24
2019-05-12T07:23:19.851Z,12.41
2019-05-12T07:24:14.688Z,12.57
2019-05-12T07:25:14.653Z,12.62
2019-05-12T07:26:19.459Z,12.83
2019-05-12T07:27:14.630Z,12.90
2019-05-12T07:28:14.632Z,12.89
2019-05-12T07:29:14.603Z,13.07
2019-05-12T07:30:14.584Z,12.92
2019-05-12T07:31:14.541Z,12.77
2019-05-12T07:32:19.894Z,12.52
2019-05-12T07:33:14.770Z,12.53
2019-05-12T07:34:14.510Z,12.31
2019-05-12T07:35:14.829Z,12.13
2019-05-12T07:36:14.449Z,12.14
2019-05-12T07:37:15.306Z,12.02
2019-05-12T07:38:20.860Z,12.01
2019-05-12T07:39:14.398Z,11.96
2019-05-12T07:40:18.844Z,11.99
2019-05-12T07:41:14.523Z,11.90
2019-05-12T07:42:14.342Z,11.75
2019-05-12T07:43:16.348Z,11.64
2019-05-12T07:44:14.354Z,11.54
2019-05-12T07:45:20.632Z,11.49
2019-05-12T07:46:14.284Z,11.55
2019-05-12T07:47:19.071Z,11.52
2019-05-12T07:48:14.234Z,11.54
2019-05-12T07:49:14.221Z,11.60
2019-05-12T07:50:16.177Z,11.62
2019-05-12T07:51:14.186Z,11.61
2019-05-12T07:52:14.160Z,11.61
2019-05-12T07:53:14.621Z,11.55
2019-05-12T07:54:14.380Z,11.61
2019-05-12T07:55:14.793Z,11.57
2019-05-12T07:56:14.524Z,11.57
2019-05-12T07:57:17.345Z,11.64
2019-05-12T07:58:18.716Z,11.67
2019-05-12T07:59:14.060Z,11.61
2019-05-12T08:00:21.151Z,11.60
2019-05-12T08:01:14.582Z,11.57
2019-05-12T08:02:14.326Z,11.65
2019-05-12T08:03:19.115Z,11.70
2019-05-12T08:04:13.971Z,11.62
2019-05-12T08:05:19.432Z,11.67
2019-05-12T08:06:14.287Z,11.65
2019-05-12T08:07:14.501Z,11.72
2019-05-12T08:08:14.509Z,11.65
2019-05-12T08:09:13.844Z,11.62
2019-05-12T08:10:19.655Z,11.64
2019-05-12T08:11:14.962Z,11.57
2019-05-12T08:12:19.473Z,11.67
2019-05-12T08:13:14.811Z,11.73
2019-05-12T08:14:24.699Z,11.80
2019-05-12T08:15:14.198Z,12.02
2019-05-12T08:16:14.358Z,12.01
2019-05-12T08:17:18.849Z,12.04
2019-05-12T08:18:14.119Z,12.23
2019-05-12T08:19:23.309Z,12.34
2019-05-12T08:20:13.696Z,12.38
2019-05-12T08:21:14.135Z,12.46
2019-05-12T08:22:13.673Z,12.35
2019-05-12T08:23:14.119Z,12.34
2019-05-12T08:24:14.373Z,12.47
2019-05-12T08:25:13.689Z,12.52
2019-05-12T08:26:18.276Z,12.77
2019-05-12T08:27:14.299Z,12.92
2019-05-12T08:28:18.216Z,13.11
2019-05-12T08:29:16.909Z,13.28
2019-05-12T08:30:13.936Z,13.39
2019-05-12T08:31:14.103Z,13.42
2019-05-12T08:32:15.972Z,13.60
2019-05-12T08:33:14.663Z,13.57
2019-05-12T08:34:13.732Z,13.55
2019-05-12T08:35:13.925Z,13.46
2019-05-12T08:36:16.338Z,13.46
2019-05-12T08:37:13.943Z,13.54
2019-05-12T08:38:14.483Z,13.63
2019-05-12T08:39:21.063Z,13.73
2019-05-12T08:40:15.365Z,13.63
2019-05-12T08:41:14.631Z,13.84
2019-05-12T08:42:14.505Z,13.81
2019-05-12T08:43:14.895Z,13.71
2019-05-12T08:44:13.595Z,13.81
2019-05-12T08:45:23.963Z,13.81
2019-05-12T08:46:15.570Z,13.85
2019-05-12T08:47:15.157Z,14.00
2019-05-12T08:48:19.233Z,14.12
2019-05-12T08:49:14.362Z,14.22
2019-05-12T08:50:13.857Z,14.29
2019-05-12T08:51:14.524Z,14.18
2019-05-12T08:52:14.216Z,14.35
2019-05-12T08:53:20.350Z,14.57
2019-05-12T08:54:14.241Z,14.54
2019-05-12T08:55:16.312Z,14.68
2019-05-12T08:56:18.981Z,14.64
2019-05-12T08:57:14.298Z,14.54
2019-05-12T08:58:29.596Z,14.47
2019-05-12T08:59:17.505Z,14.61
2019-05-12T09:00:13.457Z,14.47
2019-05-12T09:01:13.814Z,14.27
2019-05-12T09:02:13.944Z,14.52
2019-05-12T09:03:14.173Z,14.50
2019-05-12T09:04:17.956Z,14.65
2019-05-12T09:05:14.405Z,14.62
2019-05-12T09:06:15.454Z,14.50
2019-05-12T09:07:13.838Z,14.21
2019-05-12T09:08:13.787Z,14.07
2019-05-12T09:09:13.980Z,13.92
2019-05-12T09:10:14.301Z,13.96
2019-05-12T09:11:13.964Z,13.97
2019-05-12T09:12:14.030Z,14.25
2019-05-12T09:13:14.452Z,14.32
2019-05-12T09:14:14.637Z,14.35
2019-05-12T09:15:13.603Z,14.14
2019-05-12T09:16:13.825Z,13.97
2019-05-12T09:17:13.837Z,14.39
2019-05-12T09:18:14.489Z,14.88
2019-05-12T09:19:16.634Z,15.17
2019-05-12T09:20:13.687Z,15.31
2019-05-12T09:21:14.082Z,15.54
2019-05-12T09:22:16.831Z,15.80
2019-05-12T09:31:29.559Z,16.34
2019-05-12T09:32:20.558Z,16.56
2019-05-12T09:33:26.296Z,16.64
2019-05-12T09:34:20.539Z,16.68
2019-05-12T09:35:20.531Z,16.96
2019-05-12T09:36:21.753Z,17.21
2019-05-12T09:37:20.521Z,17.34
2019-05-12T09:38:23.119Z,17.46
2019-05-12T09:39:20.465Z,17.54
2019-05-12T09:40:21.051Z,17.48
2019-05-12T09:41:21.049Z,17.52
2019-05-12T09:42:25.567Z,17.54
2019-05-12T09:43:20.455Z,17.71
2019-05-12T09:44:25.579Z,17.58
2019-05-12T09:45:20.396Z,17.84
2019-05-12T09:46:20.428Z,17.77
2019-05-12T09:47:25.214Z,17.79
2019-05-12T09:48:20.363Z,17.62
2019-05-12T09:49:22.737Z,17.66
2019-05-12T09:50:20.639Z,17.43
2019-05-12T09:51:20.328Z,17.28
2019-05-12T09:52:23.277Z,16.96
2019-05-12T09:53:20.350Z,16.35
2019-05-12T09:54:26.189Z,16.02
2019-05-12T09:55:22.104Z,15.56
2019-05-12T09:56:20.292Z,15.34
2019-05-12T09:57:20.285Z,15.09
2019-05-12T09:58:25.753Z,15.02
2019-05-12T09:59:23.157Z,15.34
2019-05-12T10:00:20.261Z,15.64
2019-05-12T10:01:20.232Z,15.80
2019-05-12T10:02:20.948Z,16.01
2019-05-12T10:03:20.204Z,16.31
2019-05-12T10:04:20.215Z,16.63
2019-05-12T10:05:20.221Z,16.42
2019-05-12T10:06:21.450Z,15.93
2019-05-12T10:07:20.156Z,15.51
2019-05-12T10:08:20.156Z,15.14
2019-05-12T10:09:20.160Z,15.25
2019-05-12T10:10:20.119Z,15.51
2019-05-12T10:11:20.969Z,15.75
2019-05-12T10:12:20.096Z,16.04
2019-05-12T10:13:25.094Z,16.30
2019-05-12T10:14:20.100Z,16.58
2019-05-12T10:15:24.737Z,16.76
2019-05-12T10:16:20.050Z,17.04
2019-05-12T10:17:25.119Z,17.11
2019-05-12T10:18:20.013Z,17.25
2019-05-12T10:19:20.009Z,17.25
2019-05-12T10:20:21.652Z,17.49
2019-05-12T10:21:19.988Z,17.55
2019-05-12T10:22:19.973Z,17.63
2019-05-12T10:23:24.130Z,17.64
2019-05-12T10:24:19.945Z,17.66
2019-05-12T10:25:23.252Z,17.64
2019-05-12T10:26:19.930Z,17.49
2019-05-12T10:27:20.995Z,17.74
2019-05-12T10:28:19.915Z,17.86
2019-05-12T10:29:20.989Z,17.64
2019-05-12T10:30:19.882Z,17.68
2019-05-12T10:31:19.854Z,17.78
2019-05-12T10:32:19.847Z,18.00
2019-05-12T10:33:19.836Z,18.07
2019-05-12T10:34:19.821Z,18.20
2019-05-12T10:35:21.336Z,18.14
2019-05-12T10:36:19.817Z,18.21
2019-05-12T10:37:25.258Z,17.95
2019-05-12T10:38:19.777Z,18.12
2019-05-12T10:39:19.755Z,18.25
2019-05-12T10:40:19.746Z,18.41
2019-05-12T10:41:19.748Z,18.51
2019-05-12T10:42:19.738Z,18.23
2019-05-12T10:43:19.708Z,18.25
2019-05-12T10:44:19.717Z,18.29
2019-05-12T10:45:20.736Z,18.45
2019-05-12T10:46:26.793Z,18.42
2019-05-12T10:47:19.671Z,18.18
2019-05-12T10:48:19.651Z,18.20
2019-05-12T10:49:19.637Z,18.25
2019-05-12T10:50:19.650Z,18.15
2019-05-12T10:51:23.715Z,17.97
2019-05-12T10:52:19.589Z,17.46
2019-05-12T10:53:19.646Z,16.63
2019-05-12T10:54:19.621Z,16.27
2019-05-12T10:55:19.555Z,16.27
2019-05-12T10:56:19.541Z,16.25
2019-05-12T10:57:19.527Z,16.20
2019-05-12T10:58:19.527Z,16.11
2019-05-12T10:59:30.151Z,16.49
2019-05-12T11:00:24.591Z,16.75
2019-05-12T11:01:19.466Z,17.06
2019-05-12T11:02:20.588Z,17.31
2019-05-12T11:03:19.445Z,17.54
2019-05-12T11:04:23.442Z,17.74
2019-05-12T11:05:25.843Z,17.81
2019-05-12T11:06:19.409Z,17.84
2019-05-12T11:07:23.001Z,17.78
2019-05-12T11:08:19.378Z,18.18
2019-05-12T11:09:21.319Z,18.36
2019-05-12T11:10:20.228Z,18.26
2019-05-12T11:11:19.333Z,18.36
2019-05-12T11:12:24.401Z,18.27
2019-05-12T11:13:19.307Z,18.25
2019-05-12T11:14:20.227Z,18.21
2019-05-12T11:15:19.276Z,17.54
2019-05-12T11:16:22.776Z,17.06
2019-05-12T11:17:19.248Z,16.73
2019-05-12T11:18:20.526Z,16.57
2019-05-12T11:19:19.229Z,16.48
2019-05-12T11:20:20.039Z,16.35
2019-05-12T11:21:19.221Z,16.68
2019-05-12T11:22:19.226Z,17.04
2019-05-12T11:23:19.165Z,17.18
2019-05-12T11:24:20.040Z,17.37
2019-05-12T11:25:19.138Z,17.70
2019-05-12T11:26:25.146Z,17.79
2019-05-12T11:27:19.114Z,17.87
2019-05-12T11:28:19.125Z,17.79
2019-05-12T11:29:19.102Z,17.87
2019-05-12T11:30:19.078Z,17.89
2019-05-12T11:31:20.043Z,17.66
2019-05-12T11:32:19.045Z,17.43
2019-05-12T11:33:19.159Z,17.22
2019-05-12T11:34:19.029Z,16.94
2019-05-12T11:35:19.019Z,16.46
2019-05-12T11:36:18.988Z,16.33
2019-05-12T11:37:18.987Z,16.15
2019-05-12T11:38:18.951Z,16.12
2019-05-12T11:39:18.971Z,16.42
2019-05-12T11:40:18.931Z,16.78
2019-05-12T11:41:20.277Z,17.11
2019-05-12T11:42:18.905Z,17.26
2019-05-12T11:43:18.881Z,17.63
2019-05-12T11:44:18.876Z,17.95
2019-05-12T11:45:18.889Z,18.21
2019-05-12T11:46:18.846Z,18.26
2019-05-12T11:47:24.427Z,18.58
2019-05-12T11:48:18.822Z,18.72
2019-05-12T11:49:21.720Z,18.73
2019-05-12T11:50:18.783Z,18.75
2019-05-12T11:51:20.715Z,18.94
2019-05-12T11:52:19.497Z,19.04
2019-05-12T11:53:21.920Z,19.18
2019-05-12T11:54:18.724Z,19.33
2019-05-12T11:55:21.447Z,19.40
2019-05-12T11:56:18.704Z,19.36
2019-05-12T11:57:20.072Z,19.29
2019-05-12T11:58:18.670Z,19.23
2019-05-12T11:59:18.689Z,18.73
2019-05-12T12:00:18.649Z,18.82
2019-05-12T12:01:18.633Z,18.73
2019-05-12T12:02:20.098Z,18.88
2019-05-12T12:03:18.688Z,18.91
2019-05-12T12:04:19.582Z,19.07
2019-05-12T12:05:18.613Z,19.13
2019-05-12T12:06:18.566Z,19.11
2019-05-12T12:07:18.565Z,19.21
2019-05-12T12:08:18.541Z,18.98
2019-05-12T12:09:19.036Z,19.14
2019-05-12T12:10:18.512Z,18.85
2019-05-12T12:11:24.518Z,18.60
2019-05-12T12:12:18.490Z,18.39
2019-05-12T12:13:19.250Z,17.84
2019-05-12T12:14:18.453Z,17.46
2019-05-12T12:15:20.368Z,17.41
2019-05-12T12:16:18.467Z,17.77
2019-05-12T12:17:22.829Z,17.79
2019-05-12T12:18:18.406Z,18.07
2019-05-12T12:19:18.394Z,18.32
2019-05-12T12:20:22.449Z,18.39
2019-05-12T12:21:18.359Z,18.35
2019-05-12T12:22:20.416Z,18.54
2019-05-12T12:23:20.110Z,18.72
2019-05-12T12:24:21.315Z,18.87
2019-05-12T12:25:18.301Z,18.95
2019-05-12T12:26:20.092Z,19.11
2019-05-12T12:27:18.283Z,19.29
2019-05-12T12:28:18.278Z,19.26
2019-05-12T12:29:19.080Z,19.43
2019-05-12T12:30:19.904Z,19.62
2019-05-12T12:31:18.219Z,19.63
2019-05-12T12:32:20.274Z,19.29
2019-05-12T12:33:18.207Z,18.82
2019-05-12T12:34:23.815Z,18.72
2019-05-12T12:35:18.169Z,18.95
2019-05-12T12:36:20.826Z,19.11
2019-05-12T12:37:18.774Z,19.47
2019-05-12T12:38:18.140Z,19.66
2019-05-12T12:39:18.116Z,19.54
2019-05-12T12:40:18.095Z,19.74
2019-05-12T12:41:18.085Z,19.62
2019-05-12T12:42:18.072Z,19.37
2019-05-12T12:43:18.083Z,19.11
2019-05-12T12:44:18.039Z,19.21
2019-05-12T12:45:18.029Z,19.32
2019-05-12T12:46:21.448Z,19.40
2019-05-12T12:47:17.990Z,19.69
2019-05-12T12:48:19.439Z,19.29
2019-05-12T12:49:18.031Z,19.29
2019-05-12T12:50:20.269Z,19.39
2019-05-12T12:51:17.957Z,19.63
2019-05-12T12:52:17.936Z,19.83
2019-05-12T12:53:17.929Z,19.88
2019-05-12T12:54:17.903Z,19.98
2019-05-12T12:55:17.919Z,19.78
2019-05-12T12:56:28.290Z,19.92
2019-05-12T12:57:19.249Z,19.92
2019-05-12T12:58:24.130Z,20.26
2019-05-12T12:59:17.833Z,20.23
2019-05-12T13:00:28.887Z,20.16
2019-05-12T13:01:26.769Z,20.14
2019-05-12T13:02:17.792Z,20.26
2019-05-12T13:03:19.603Z,20.42
2019-05-12T13:04:17.782Z,20.38
2019-05-12T13:05:17.764Z,20.31
2019-05-12T13:06:17.760Z,20.29
2019-05-12T13:07:17.731Z,20.29
2019-05-12T13:08:17.728Z,20.35
2019-05-12T13:09:24.299Z,20.33
2019-05-12T13:10:17.712Z,19.96
2019-05-12T13:11:30.497Z,19.78
2019-05-12T13:12:19.555Z,19.78